地図

経路データ

SID SEASON NUMBER BASIN SUBBASIN NAME ISO_TIME NATURE LAT LON WMO_WIND WMO_PRES WMO_AGENCY TRACK_TYPE DIST2LAND LANDFALL IFLAG USA_AGENCY USA_ATCF_ID USA_LAT USA_LON USA_RECORD USA_STATUS USA_WIND USA_PRES USA_SSHS USA_R34_NE USA_R34_SE USA_R34_SW USA_R34_NW USA_R50_NE USA_R50_SE USA_R50_SW USA_R50_NW USA_R64_NE USA_R64_SE USA_R64_SW USA_R64_NW USA_POCI USA_ROCI USA_RMW USA_EYE TOKYO_LAT TOKYO_LON TOKYO_GRADE TOKYO_WIND TOKYO_PRES TOKYO_R50_DIR TOKYO_R50_LONG TOKYO_R50_SHORT TOKYO_R30_DIR TOKYO_R30_LONG TOKYO_R30_SHORT TOKYO_LAND CMA_LAT CMA_LON CMA_CAT CMA_WIND CMA_PRES HKO_LAT HKO_LON HKO_CAT HKO_WIND HKO_PRES NEWDELHI_LAT NEWDELHI_LON NEWDELHI_GRADE NEWDELHI_WIND NEWDELHI_PRES NEWDELHI_CI NEWDELHI_DP NEWDELHI_POCI REUNION_LAT REUNION_LON REUNION_TYPE REUNION_WIND REUNION_PRES REUNION_TNUM REUNION_CI REUNION_RMW REUNION_R34_NE REUNION_R34_SE REUNION_R34_SW REUNION_R34_NW REUNION_R50_NE REUNION_R50_SE REUNION_R50_SW REUNION_R50_NW REUNION_R64_NE REUNION_R64_SE REUNION_R64_SW REUNION_R64_NW BOM_LAT BOM_LON BOM_TYPE BOM_WIND BOM_PRES BOM_TNUM BOM_CI BOM_RMW BOM_R34_NE BOM_R34_SE BOM_R34_SW BOM_R34_NW BOM_R50_NE BOM_R50_SE BOM_R50_SW BOM_R50_NW BOM_R64_NE BOM_R64_SE BOM_R64_SW BOM_R64_NW BOM_ROCI BOM_POCI BOM_EYE BOM_POS_METHOD BOM_PRES_METHOD NADI_LAT NADI_LON NADI_CAT NADI_WIND NADI_PRES WELLINGTON_LAT WELLINGTON_LON WELLINGTON_WIND WELLINGTON_PRES DS824_LAT DS824_LON DS824_STAGE DS824_WIND DS824_PRES TD9636_LAT TD9636_LON TD9636_STAGE TD9636_WIND TD9636_PRES TD9635_LAT TD9635_LON TD9635_WIND TD9635_PRES TD9635_ROCI NEUMANN_LAT NEUMANN_LON NEUMANN_CLASS NEUMANN_WIND NEUMANN_PRES MLC_LAT MLC_LON MLC_CLASS MLC_WIND MLC_PRES USA_GUST BOM_GUST BOM_GUST_PER REUNION_GUST REUNION_GUST_PER USA_SEAHGT USA_SEARAD_NE USA_SEARAD_SE USA_SEARAD_SW USA_SEARAD_NW STORM_SPEED STORM_DIR
1854279N12297 1854 13 NA CS NOT_NAMED 1854-10-05 12:00:00 TS 12.0000 -62.8000 main 145 145 _____________O -1 12.0000 -62.8000 TD 30 3 341
1854279N12297 1854 13 NA CS NOT_NAMED 1854-10-05 15:00:00 TS 12.1500 -62.8500 main 167 167 _____________P -1 12.1500 -62.8500 TD 30 3 343
1854279N12297 1854 13 NA CS NOT_NAMED 1854-10-05 18:00:00 TS 12.3000 -62.9000 main 179 179 _____________O -1 12.3000 -62.9000 TD 30 3 343
1854279N12297 1854 13 NA CS NOT_NAMED 1854-10-05 21:00:00 TS 12.4500 -62.9500 main 201 190 _____________P -1 12.4500 -62.9500 TD 30 3 343
1854279N12297 1854 13 NA CS NOT_NAMED 1854-10-06 00:00:00 TS 12.6000 -63.0000 main 212 212 _____________O -1 12.6000 -63.0000 TD 30 3 343
1854279N12297 1854 13 NA CS NOT_NAMED 1854-10-06 03:00:00 TS 12.7500 -63.0500 main 235 223 _____________P -1 12.7500 -63.0500 TD 30 3 343
1854279N12297 1854 13 NA CS NOT_NAMED 1854-10-06 06:00:00 TS 12.9000 -63.1000 main 246 246 _____________O -1 12.9000 -63.1000 TD 30 3 343
1854279N12297 1854 13 NA CS NOT_NAMED 1854-10-06 09:00:00 TS 13.0500 -63.1500 main 268 257 _____________P -1 13.0500 -63.1500 TD 30 3 343
1854279N12297 1854 13 NA CS NOT_NAMED 1854-10-06 12:00:00 TS 13.2000 -63.2000 main 280 280 _____________O -1 13.2000 -63.2000 TD 30 3 341
1854279N12297 1854 13 NA CS NOT_NAMED 1854-10-06 15:00:00 TS 13.3425 -63.2500 main 291 291 _____________P -1 13.3425 -63.2500 TD 30 3 343
1854279N12297 1854 13 NA CS NOT_NAMED 1854-10-06 18:00:00 TS 13.5000 -63.3000 main 314 314 _____________O -1 13.5000 -63.3000 TD 30 4 344
1854279N12297 1854 13 NA CS NOT_NAMED 1854-10-06 21:00:00 TS 13.7000 -63.3500 main 336 336 _____________P -1 13.7000 -63.3500 TD 30 4 347
1854279N12297 1854 13 NA CS NOT_NAMED 1854-10-07 00:00:00 TS 13.9000 -63.4000 main 359 359 _____________O -1 13.9000 -63.4000 TD 30 4 344
1854279N12297 1854 13 NA CS NOT_NAMED 1854-10-07 03:00:00 TS 14.0575 -63.4500 main 383 383 _____________P -1 14.0575 -63.4500 TD 30 3 343
1854279N12297 1854 13 NA CS NOT_NAMED 1854-10-07 06:00:00 TS 14.2000 -63.5000 main 394 394 _____________O -1 14.2000 -63.5000 TD 30 3 341
1854279N12297 1854 13 NA CS NOT_NAMED 1854-10-07 09:00:00 TS 14.3425 -63.5500 main 406 406 _____________P -1 14.3425 -63.5500 TD 32 3 343
1854279N12297 1854 13 NA CS NOT_NAMED 1854-10-07 12:00:00 TS 14.5000 -63.6000 main 428 428 _____________O -1 14.5000 -63.6000 TS 35 4 345
1854279N12297 1854 13 NA CS NOT_NAMED 1854-10-07 15:00:00 TS 14.6925 -63.6500 main 432 412 _____________P -1 14.6925 -63.6500 TS 35 4 347
1854279N12297 1854 13 NA CS NOT_NAMED 1854-10-07 18:00:00 TS 14.9000 -63.7000 main 412 394 _____________O -1 14.9000 -63.7000 TS 35 4 347
1854279N12297 1854 13 NA CS NOT_NAMED 1854-10-07 21:00:00 TS 15.1000 -63.7500 main 388 369 _____________P -1 15.1000 -63.7500 TS 35 4 347
1854279N12297 1854 13 NA CS NOT_NAMED 1854-10-08 00:00:00 TS 15.3000 -63.8000 main 369 351 _____________O -1 15.3000 -63.8000 TS 35 4 347
1854279N12297 1854 13 NA CS NOT_NAMED 1854-10-08 03:00:00 TS 15.5075 -63.8500 main 351 327 _____________P -1 15.5075 -63.8500 TS 35 4 347
1854279N12297 1854 13 NA CS NOT_NAMED 1854-10-08 06:00:00 TS 15.7000 -63.9000 main 327 311 _____________O -1 15.7000 -63.9000 TS 35 4 342
1854279N12297 1854 13 NA CS NOT_NAMED 1854-10-08 09:00:00 TS 15.8425 -63.9575 main 311 294 _____________P -1 15.8425 -63.9575 TS 37 3 343
1854279N12297 1854 13 NA CS NOT_NAMED 1854-10-08 12:00:00 TS 16.0000 -64.0000 main 294 277 _____________O -1 16.0000 -64.0000 TS 40 4 353
1854279N12297 1854 13 NA CS NOT_NAMED 1854-10-08 15:00:00 TS 16.2275 -64.0075 main 277 254 _____________P -1 16.2275 -64.0075 TS 40 5 2
1854279N12297 1854 13 NA CS NOT_NAMED 1854-10-08 18:00:00 TS 16.5000 -64.0000 main 254 230 _____________O -1 16.5000 -64.0000 TS 40 6 0
1854279N12297 1854 13 NA CS NOT_NAMED 1854-10-08 21:00:00 TS 16.8000 -64.0000 main 230 209 _____________P -1 16.8000 -64.0000 TS 40 6 1
1854279N12297 1854 13 NA CS NOT_NAMED 1854-10-09 00:00:00 TS 17.1000 -64.0000 main 209 197 _____________O -1 17.1000 -64.0000 TS 40 6 0
1854279N12297 1854 13 NA CS NOT_NAMED 1854-10-09 03:00:00 TS 17.3500 -64.0149 main 197 182 _____________P -1 17.3500 -64.0149 TS 40 5 2
1854279N12297 1854 13 NA CS NOT_NAMED 1854-10-09 06:00:00 TS 17.6000 -64.0000 main 182 172 _____________O -1 17.6000 -64.0000 TS 40 6 8
1854279N12297 1854 13 NA CS NOT_NAMED 1854-10-09 09:00:00 TS 17.9074 -63.9450 main 182 179 _____________P -1 17.9074 -63.9450 TS 42 6 18
1854279N12297 1854 13 NA CS NOT_NAMED 1854-10-09 12:00:00 TS 18.2000 -63.8000 main 190 190 _____________O -1 18.2000 -63.8000 TS 45 6 37
1854279N12297 1854 13 NA CS NOT_NAMED 1854-10-09 15:00:00 TS 18.4150 -63.5375 main 221 221 _____________P -1 18.4150 -63.5375 TS 45 7 55
1854279N12297 1854 13 NA CS NOT_NAMED 1854-10-09 18:00:00 TS 18.6000 -63.2000 main 254 254 _____________O -1 18.6000 -63.2000 TS 45 7 58
1854279N12297 1854 13 NA CS NOT_NAMED 1854-10-09 21:00:00 TS 18.7998 -62.8799 main 288 288 _____________P -1 18.7998 -62.8799 TS 45 8 59
1854279N12297 1854 13 NA NA NOT_NAMED 1854-10-10 00:00:00 TS 19.0000 -62.5000 main 333 333 _____________O -1 19.0000 -62.5000 TS 45 9 65
1854279N12297 1854 13 NA NA NOT_NAMED 1854-10-10 03:00:00 TS 19.1927 -61.9925 main 389 389 _____________P -1 19.1927 -61.9925 TS 47 10 67
1854279N12297 1854 13 NA NA NOT_NAMED 1854-10-10 06:00:00 TS 19.4000 -61.5000 main 445 445 _____________O -1 19.4000 -61.5000 TS 50 9 59
1854279N12297 1854 13 NA NA NOT_NAMED 1854-10-10 09:00:00 TS 19.6497 -61.1773 main 481 481 _____________P -1 19.6497 -61.1773 TS 52 8 49
1854279N12297 1854 13 NA NA NOT_NAMED 1854-10-10 12:00:00 TS 19.9000 -60.9000 main 521 521 _____________O -1 19.9000 -60.9000 TS 55 7 52
1854279N12297 1854 13 NA NA NOT_NAMED 1854-10-10 15:00:00 TS 20.1075 -60.5574 main 558 558 _____________P -1 20.1075 -60.5574 TS 55 8 59
1854279N12297 1854 13 NA NA NOT_NAMED 1854-10-10 18:00:00 TS 20.3000 -60.2000 main 605 605 _____________O -1 20.3000 -60.2000 TS 55 8 59
1854279N12297 1854 13 NA NA NOT_NAMED 1854-10-10 21:00:00 TS 20.4999 -59.8574 main 642 642 _____________P -1 20.4999 -59.8574 TS 55 8 59
1854279N12297 1854 13 NA NA NOT_NAMED 1854-10-11 00:00:00 TS 20.7000 -59.5000 main 688 688 _____________O -1 20.7000 -59.5000 TS 55 8 61
1854279N12297 1854 13 NA NA NOT_NAMED 1854-10-11 03:00:00 TS 20.9000 -59.1000 main 735 735 _____________P -1 20.9000 -59.1000 TS 55 8 62
1854279N12297 1854 13 NA NA NOT_NAMED 1854-10-11 06:00:00 TS 21.1000 -58.7000 main 782 782 _____________O -1 21.1000 -58.7000 TS 55 8 60
1854279N12297 1854 13 NA NA NOT_NAMED 1854-10-11 09:00:00 TS 21.2922 -58.3647 main 819 819 _____________P -1 21.2922 -58.3647 TS 55 8 58
1854279N12297 1854 13 NA NA NOT_NAMED 1854-10-11 12:00:00 TS 21.5000 -58.0000 main 866 866 _____________O -1 21.5000 -58.0000 TS 55 9 61
1854279N12297 1854 13 NA NA NOT_NAMED 1854-10-11 15:00:00 TS 21.7350 -57.5224 main 922 922 _____________P -1 21.7350 -57.5224 TS 55 11 62
1854279N12297 1854 13 NA NA NOT_NAMED 1854-10-11 18:00:00 TS 22.0000 -57.0000 main 983 983 _____________O -1 22.0000 -57.0000 TS 55 11 60
1854279N12297 1854 13 NA NA NOT_NAMED 1854-10-11 21:00:00 TS 22.2924 -56.4924 main 1043 1043 _____________P -1 22.2924 -56.4924 TS 55 11 57
1854279N12297 1854 13 NA NA NOT_NAMED 1854-10-12 00:00:00 TS 22.6000 -56.0000 main 1104 1104 _____________O -1 22.6000 -56.0000 TS 55 11 55
1854279N12297 1854 13 NA NA NOT_NAMED 1854-10-12 03:00:00 TS 22.9072 -55.5498 main 1164 1164 _____________P -1 22.9072 -55.5498 TS 55 10 54
1854279N12297 1854 13 NA NA NOT_NAMED 1854-10-12 06:00:00 TS 23.2000 -55.1000 main 1215 1215 _____________O -1 23.2000 -55.1000 TS 55 10 58
1854279N12297 1854 13 NA NA NOT_NAMED 1854-10-12 09:00:00 TS 23.4422 -54.6294 main 1271 1271 _____________P -1 23.4422 -54.6294 TS 55 10 61
1854279N12297 1854 13 NA NA NOT_NAMED 1854-10-12 12:00:00 TS 23.7000 -54.1000 main 1331 1331 _____________O -1 23.7000 -54.1000 TS 55 12 61
1854279N12297 1854 13 NA NA NOT_NAMED 1854-10-12 15:00:00 TS 24.0350 -53.4725 main 1400 1400 _____________P -1 24.0350 -53.4725 TS 55 14 59
1854279N12297 1854 13 NA NA NOT_NAMED 1854-10-12 18:00:00 TS 24.4000 -52.8000 main 1483 1483 _____________O -1 24.4000 -52.8000 TS 55 14 59
1854279N12297 1854 13 NA NA NOT_NAMED 1854-10-12 21:00:00 TS 24.7497 -52.1496 main 1562 1562 _____________P -1 24.7497 -52.1496 TS 55 14 59
1854279N12297 1854 13 NA NA NOT_NAMED 1854-10-13 00:00:00 TS 25.1000 -51.5000 main 1635 1635 _____________O -1 25.1000 -51.5000 TS 55 14 59
1854279N12297 1854 13 NA NA NOT_NAMED 1854-10-13 03:00:00 TS 25.4497 -50.8496 main 1713 1713 _____________P -1 25.4497 -50.8496 TS 55 14 59
1854279N12297 1854 13 NA NA NOT_NAMED 1854-10-13 06:00:00 TS 25.8000 -50.2000 main 1786 1786 _____________O -1 25.8000 -50.2000 TS 55 13 60
1854279N12297 1854 13 NA NA NOT_NAMED 1854-10-13 09:00:00 TS 26.1270 -49.5640 main 1855 1855 _____________P -1 26.1270 -49.5640 TS 55 14 59
1854279N12297 1854 13 NA NA NOT_NAMED 1854-10-13 12:00:00 TS 26.5000 -48.9000 main 1937 1937 _____________O -1 26.5000 -48.9000 TS 55 15 55
1854279N12297 1854 13 NA NA NOT_NAMED 1854-10-13 15:00:00 TS 26.9847 -48.1725 main 2023 2023 _____________P -1 26.9847 -48.1725 TS 55 17 53
1854279N12297 1854 13 NA NA NOT_NAMED 1854-10-13 18:00:00 TS 27.5000 -47.4000 main 2118 2118 _____________O -1 27.5000 -47.4000 TS 55 17 55
1854279N12297 1854 13 NA NA NOT_NAMED 1854-10-13 21:00:00 TS 27.9498 -46.5992 main 2160 2126 _____________P -1 27.9498 -46.5992 TS 55 17 58
1854279N12297 1854 13 NA NA NOT_NAMED 1854-10-14 00:00:00 TS 28.4000 -45.8000 main 2126 2092 _____________O -1 28.4000 -45.8000 TS 55 17 55
1854279N12297 1854 13 NA NA NOT_NAMED 1854-10-14 03:00:00 TS 28.8995 -45.0420 main 2095 2063 _____________P -1 28.8995 -45.0420 TS 52 17 53
1854279N12297 1854 13 NA NA NOT_NAMED 1854-10-14 06:00:00 TS 29.4000 -44.3000 main 2063 2041 _____________O -1 29.4000 -44.3000 TS 50 16 54
1854279N12297 1854 13 NA NA NOT_NAMED 1854-10-14 09:00:00 TS 29.8421 -43.5488 main 2048 2022 _____________P -1 29.8421 -43.5488 TS 47 16 55
1854279N12297 1854 13 NA NA NOT_NAMED 1854-10-14 12:00:00 TS 30.3000 -42.8000 main 2022 1999 _____________O -1 30.3000 -42.8000 TS 45 16 52
1854279N12297 1854 13 NA NA NOT_NAMED 1854-10-14 15:00:00 TS 30.8344 -42.0568 main 1999 1973 _____________P -1 30.8344 -42.0568 TS 42 17 50
1854279N12297 1854 13 NA NA NOT_NAMED 1854-10-14 18:00:00 TS 31.4000 -41.3000 main 1973 1956 _____________O -1 31.4000 -41.3000 TS 40 17 50
1854279N12297 1854 13 NA NA NOT_NAMED 1854-10-14 21:00:00 TS 31.9571 -40.5069 main 1951 1941 _____________P -1 31.9571 -40.5069 TS 37 17 51
1854279N12297 1854 13 NA NA NOT_NAMED 1854-10-15 00:00:00 TS 32.5000 -39.7000 main 1942 1934 _____________O -1 32.5000 -39.7000 TS 35 18 54
1854279N12297 1854 13 NA NA NOT_NAMED 1854-10-15 03:00:00 TS 33.0082 -38.8179 main 1941 1932 _____________P -1 33.0082 -38.8179 TS 35 17 53
1854279N12297 1854 13 NA NA NOT_NAMED 1854-10-15 06:00:00 ET 33.5000 -38.1000 main 1934 1912 _____________O -1 33.5000 -38.1000 EX 35 14 43
1854279N12297 1854 13 NA NA NOT_NAMED 1854-10-15 09:00:00 ET 34.0365 -37.6623 main 1912 1874 _____________P -1 34.0365 -37.6623 EX 35 11 23
1854279N12297 1854 13 NA NA NOT_NAMED 1854-10-15 12:00:00 ET 34.5000 -37.6000 main 1874 1831 _____________O -1 34.5000 -37.6000 EX 35 8 343
1854279N12297 1854 13 NA NA NOT_NAMED 1854-10-15 15:00:00 ET 34.8012 -37.9369 main 1831 1779 _____________P -1 34.8012 -37.9369 EX 35 9 304
1854279N12297 1854 13 NA NA NOT_NAMED 1854-10-15 18:00:00 ET 35.0000 -38.5000 main 1779 _____________O -1 35.0000 -38.5000 EX 35 10 293

IBTrACS Databaseについて

本データベースは、米国NOAAが公開する1842年以降の世界の熱帯低気圧のベストトラックデータアーカイブInternational Best Track Archive for Climate Stewardship (IBTrACS)を、ウェブで閲覧しやすい形式に変換したものです。

最終更新日:2021-12-06